Time;durP1;ratioP1;P1;durP2;ratioP2;P2;SDS_P1;SDS_P2;PMS_P1;PMS_P2;Temp;Humidity;BMP_temperature;BMP_pressure;BME280_temperature;BME280_humidity;BME280_pressure;Samples;Min_cycle;Max_cycle;Signal;HPM_P1;HPM_P2
2023/09/27 00:00:26;;;;;;;14.20;4.53;;;;;;;19.31;73.31;99388.69;4469724;32;20101;-79
2023/09/27 00:02:55;;;;;;;8.27;4.37;;;;;;;19.31;73.62;99385.22;4469789;32;20131;-79
2023/09/27 00:05:25;;;;;;;14.82;4.87;;;;;;;19.31;73.63;99380.72;4469713;32;20109;-79
2023/09/27 00:07:53;;;;;;;12.43;4.50;;;;;;;19.35;73.76;99388.31;4469733;32;20152;-79
2023/09/27 00:10:21;;;;;;;10.05;4.22;;;;;;;19.27;74.08;99375.94;4469501;32;20408;-79
2023/09/27 00:12:48;;;;;;;7.70;4.47;;;;;;;19.24;74.06;99377.13;4469829;32;20089;-79
2023/09/27 00:15:16;;;;;;;11.20;4.75;;;;;;;19.26;74.29;99372.47;4472747;32;20120;-79
2023/09/27 00:17:44;;;;;;;10.07;4.70;;;;;;;19.30;73.96;99371.09;4485632;31;20158;-79
2023/09/27 00:20:18;;;;;;;13.15;4.82;;;;;;;19.28;74.59;99375.75;4485190;31;20101;-79
2023/09/27 00:22:46;;;;;;;9.63;4.65;;;;;;;19.24;74.19;99379.78;4485200;31;20080;-79
2023/09/27 00:25:14;;;;;;;14.50;5.28;;;;;;;19.28;74.14;99374.94;4485242;32;20160;-79
2023/09/27 00:27:42;;;;;;;12.75;5.05;;;;;;;19.28;74.30;99375.75;4485202;31;20160;-79
2023/09/27 00:30:14;;;;;;;9.95;5.05;;;;;;;19.27;74.76;99376.78;4485285;31;20092;-79
2023/09/27 00:32:44;;;;;;;10.10;4.57;;;;;;;19.19;74.52;99370.69;4485419;31;20081;-79
2023/09/27 00:35:22;;;;;;;7.22;4.53;;;;;;;19.16;75.19;99379.84;4485087;31;20101;-79
2023/09/27 00:37:51;;;;;;;10.63;4.53;;;;;;;19.12;75.24;99375.87;4485244;31;20539;-79
2023/09/27 00:40:22;;;;;;;11.57;4.30;;;;;;;19.03;76.10;99372.47;4485120;31;20097;-79
2023/09/27 00:42:49;;;;;;;10.52;5.05;;;;;;;18.96;76.20;99369.69;4485158;31;20161;-79
2023/09/27 00:45:18;;;;;;;16.33;4.90;;;;;;;18.94;76.73;99373.50;4485137;32;20450;-79
2023/09/27 00:47:47;;;;;;;7.90;4.50;;;;;;;18.77;76.95;99373.63;4485297;31;20412;-79
2023/09/27 00:50:15;;;;;;;9.27;4.57;;;;;;;18.78;77.46;99369.13;4485198;31;20080;-79
2023/09/27 00:52:44;;;;;;;13.95;4.50;;;;;;;18.83;77.33;99380.03;4483270;31;20134;-79
2023/09/27 00:55:13;;;;;;;13.13;5.22;;;;;;;18.77;77.63;99378.06;4469522;32;20108;-79
2023/09/27 00:57:42;;;;;;;7.82;4.68;;;;;;;18.72;77.62;99375.94;4469784;32;20097;-79
2023/09/27 01:00:10;;;;;;;8.90;4.80;;;;;;;18.70;77.92;99377.13;4469470;32;20115;-79
2023/09/27 01:02:39;;;;;;;11.70;4.55;;;;;;;18.70;77.48;99372.66;4469389;32;20093;-79
2023/09/27 01:05:10;;;;;;;10.48;4.82;;;;;;;18.74;77.37;99373.12;4469293;32;20249;-79
2023/09/27 01:07:39;;;;;;;19.15;5.03;;;;;;;18.78;77.44;99377.09;4469560;32;20099;-79
2023/09/27 01:10:08;;;;;;;8.57;4.87;;;;;;;18.68;78.00;99376.47;4469326;32;20127;-79
2023/09/27 01:12:37;;;;;;;11.63;4.75;;;;;;;18.68;78.15;99379.12;4469294;32;20484;-79
2023/09/27 01:15:06;;;;;;;7.47;4.47;;;;;;;18.62;78.45;99376.19;4469984;32;20741;-79
2023/09/27 01:17:35;;;;;;;8.40;4.72;;;;;;;18.65;78.14;99374.16;4484362;31;20096;-79
2023/09/27 01:20:06;;;;;;;13.05;4.75;;;;;;;18.63;78.35;99380.47;4485055;31;20092;-79
2023/09/27 01:22:34;;;;;;;10.02;4.32;;;;;;;18.60;78.61;99372.03;4485128;32;20523;-79
2023/09/27 01:25:03;;;;;;;9.05;4.20;;;;;;;18.54;79.14;99373.56;4484948;31;20097;-79
2023/09/27 01:27:30;;;;;;;9.05;4.40;;;;;;;18.52;79.30;99380.88;4484960;31;20103;-79
2023/09/27 01:29:58;;;;;;;12.25;4.78;;;;;;;18.44;80.02;99386.22;4484906;32;20080;-79
2023/09/27 01:32:25;;;;;;;10.07;4.95;;;;;;;18.49;79.92;99375.91;4484692;31;20144;-79
2023/09/27 01:34:53;;;;;;;7.65;4.25;;;;;;;18.46;80.04;99378.91;4484700;31;20477;-79
2023/09/27 01:37:21;;;;;;;13.62;4.80;;;;;;;18.38;80.61;99374.47;4485123;31;20104;-79
2023/09/27 01:39:58;;;;;;;9.20;4.57;;;;;;;18.30;81.20;99381.63;4484879;31;20147;-79
2023/09/27 01:42:26;;;;;;;9.90;4.82;;;;;;;18.31;81.52;99386.75;4484911;31;20151;-79
2023/09/27 01:44:53;;;;;;;14.00;4.85;;;;;;;18.25;81.89;99379.50;4484670;31;20165;-79
2023/09/27 01:47:21;;;;;;;13.10;4.97;;;;;;;18.23;82.05;99384.16;4484983;31;20126;-79
2023/09/27 01:49:50;;;;;;;10.77;4.55;;;;;;;18.32;81.89;99387.59;4484527;32;20148;-79
2023/09/27 01:52:18;;;;;;;7.65;4.82;;;;;;;18.27;82.34;99381.00;4484554;31;20096;-79
2023/09/27 01:54:46;;;;;;;7.40;4.60;;;;;;;18.30;82.39;99379.78;4469671;31;20113;-79
2023/09/27 01:57:14;;;;;;;12.50;5.80;;;;;;;18.29;82.65;99378.16;4468787;32;20103;-79
2023/09/27 01:59:42;;;;;;;7.90;4.90;;;;;;;18.24;82.77;99377.84;4469029;32;20097;-79
2023/09/27 02:02:09;;;;;;;15.50;6.12;;;;;;;18.19;83.33;99378.34;4468655;32;20093;-79
2023/09/27 02:04:37;;;;;;;8.68;5.15;;;;;;;18.27;82.95;99375.69;4468800;32;20093;-79
2023/09/27 02:07:05;;;;;;;9.55;5.03;;;;;;;18.35;82.66;99380.12;4468764;32;20499;-79
2023/09/27 02:09:35;;;;;;;11.27;5.12;;;;;;;18.40;82.71;99379.59;4468967;32;20101;-79
2023/09/27 02:12:03;;;;;;;9.00;4.93;;;;;;;18.33;82.93;99373.34;4468708;32;20089;-79
2023/09/27 02:14:32;;;;;;;14.40;6.22;;;;;;;18.30;82.86;99377.16;4468786;32;20136;-79
2023/09/27 02:17:00;;;;;;;8.20;5.03;;;;;;;18.34;82.89;99377.66;4483051;32;20469;-79
2023/09/27 02:19:30;;;;;;;11.30;4.90;;;;;;;18.35;83.28;99379.28;4484347;31;20080;-79
2023/09/27 02:21:58;;;;;;;14.77;5.47;;;;;;;18.35;83.41;99381.94;4484394;31;20149;-79
2023/09/27 02:24:26;;;;;;;8.30;5.00;;;;;;;18.32;83.62;99374.31;4484081;32;20140;-79
2023/09/27 02:26:55;;;;;;;7.72;4.82;;;;;;;18.35;83.58;99387.25;4484323;31;20159;-79
2023/09/27 02:29:23;;;;;;;9.55;5.28;;;;;;;18.24;84.03;99378.69;4484338;31;20084;-79
2023/09/27 02:31:54;;;;;;;12.82;5.70;;;;;;;18.25;84.27;99382.97;4486240;31;20567;-79
2023/09/27 02:34:21;;;;;;;12.82;4.68;;;;;;;18.38;84.00;99381.59;4485793;32;20516;-79
2023/09/27 02:36:49;;;;;;;14.80;4.85;;;;;;;18.38;83.92;99386.88;4486073;31;20798;-79
2023/09/27 02:39:17;;;;;;;13.62;6.10;;;;;;;18.27;84.30;99378.34;4486081;31;20385;-80
2023/09/27 02:41:45;;;;;;;7.68;4.37;;;;;;;18.33;84.63;99375.97;4485766;31;20101;-79
2023/09/27 02:44:13;;;;;;;10.82;5.35;;;;;;;18.35;84.70;99376.63;4485846;32;20142;-79
2023/09/27 02:46:41;;;;;;;9.68;4.97;;;;;;;18.26;85.03;99375.84;4486075;31;20147;-79
2023/09/27 02:49:09;;;;;;;9.30;4.78;;;;;;;18.30;84.95;99373.69;4486121;31;20092;-79
2023/09/27 02:51:37;;;;;;;10.48;5.50;;;;;;;18.32;85.08;99376.97;4485892;31;20096;-79
2023/09/27 02:54:06;;;;;;;12.00;5.12;;;;;;;18.24;85.49;99381.34;4474896;31;20176;-79
2023/09/27 02:56:34;;;;;;;13.48;5.57;;;;;;;18.26;85.65;99374.03;4470244;32;20386;-79
2023/09/27 02:59:02;;;;;;;12.95;5.30;;;;;;;18.27;85.58;99377.50;4470088;32;20450;-79
2023/09/27 03:01:29;;;;;;;11.10;5.20;;;;;;;18.24;85.84;99381.34;4470250;32;20111;-79
2023/09/27 03:03:57;;;;;;;14.55;5.43;;;;;;;18.21;85.79;99381.69;4470120;32;20112;-79
2023/09/27 03:06:25;;;;;;;7.50;4.90;;;;;;;18.27;85.86;99382.78;4470383;32;20175;-79
2023/09/27 03:08:53;;;;;;;15.07;6.12;;;;;;;18.21;86.05;99380.84;4470299;32;20450;-79
2023/09/27 03:11:21;;;;;;;13.50;5.68;;;;;;;18.18;86.37;99375.87;4470353;32;20556;-79
2023/09/27 03:13:50;;;;;;;7.78;4.93;;;;;;;18.21;86.51;99371.06;4470335;32;20105;-79
2023/09/27 03:16:18;;;;;;;11.32;6.15;;;;;;;18.25;86.24;99379.50;4480089;32;20099;-79
2023/09/27 03:18:46;;;;;;;9.38;4.93;;;;;;;18.14;86.93;99378.06;4485873;31;20093;-79
2023/09/27 03:21:15;;;;;;;7.75;4.80;;;;;;;18.14;87.03;99375.41;4486026;31;20105;-79
2023/09/27 03:23:43;;;;;;;10.65;4.85;;;;;;;18.13;87.33;99379.03;4485649;31;20108;-79
2023/09/27 03:26:11;;;;;;;12.30;6.43;;;;;;;18.16;87.18;99369.91;4485861;31;20122;-79
2023/09/27 03:28:40;;;;;;;10.50;5.35;;;;;;;18.13;87.38;99372.91;4485884;31;20107;-79
2023/09/27 03:31:08;;;;;;;8.82;4.80;;;;;;;18.05;87.80;99371.13;4485611;31;20119;-79
2023/09/27 03:33:37;;;;;;;11.73;5.72;;;;;;;18.06;88.09;99372.75;4485727;32;20096;-79
2023/09/27 03:36:05;;;;;;;12.32;5.45;;;;;;;18.04;88.04;99372.94;4484352;32;20096;-79
2023/09/27 03:38:33;;;;;;;7.62;5.10;;;;;;;18.04;88.19;99369.47;4485512;31;20134;-79
2023/09/27 03:41:07;;;;;;;8.52;4.68;;;;;;;18.07;88.31;99371.78;4485546;31;20092;-79
2023/09/27 03:43:35;;;;;;;10.15;5.20;;;;;;;18.07;88.14;99377.06;4485434;31;20135;-79
2023/09/27 03:46:03;;;;;;;9.52;5.00;;;;;;;17.98;88.28;99380.75;4484180;32;20503;-79
2023/09/27 03:48:33;;;;;;;11.90;5.20;;;;;;;18.01;88.40;99378.56;4485737;31;20115;-79
2023/09/27 03:51:01;;;;;;;12.10;5.87;;;;;;;17.90;88.75;99377.13;4485596;31;20134;-79
2023/09/27 03:53:29;;;;;;;10.75;4.97;;;;;;;17.97;88.41;99379.09;4478560;32;20101;-79
2023/09/27 03:55:56;;;;;;;9.48;4.97;;;;;;;17.93;88.87;99375.13;4469563;32;20118;-79
2023/09/27 03:58:24;;;;;;;15.07;5.22;;;;;;;17.96;88.51;99372.16;4475813;32;20375;-79
2023/09/27 04:00:53;;;;;;;8.93;5.45;;;;;;;17.99;88.46;99374.47;4485368;32;20446;-81
2023/09/27 04:03:20;;;;;;;12.25;5.45;;;;;;;17.91;88.79;99373.47;4485298;31;20085;-79
2023/09/27 04:05:47;;;;;;;17.17;5.75;;;;;;;17.86;89.33;99369.63;4485163;31;20084;-79
2023/09/27 04:08:17;;;;;;;14.05;5.15;;;;;;;17.88;89.09;99371.13;4485320;31;20424;-80
2023/09/27 04:10:45;;;;;;;12.45;5.62;;;;;;;17.85;89.08;99374.13;4485449;31;20857;-80
2023/09/27 04:13:12;;;;;;;12.80;4.95;;;;;;;17.88;89.09;99372.94;4492203;31;20096;-80
2023/09/27 04:15:39;;;;;;;19.60;6.30;;;;;;;17.88;89.16;99368.47;4490304;31;20089;-80
2023/09/27 04:18:06;;;;;;;12.45;5.82;;;;;;;17.80;89.79;99371.13;4492108;31;20127;-80
2023/09/27 04:20:34;;;;;;;15.80;5.45;;;;;;;17.82;89.70;99368.31;4494999;31;20112;-81
2023/09/27 04:23:03;;;;;;;10.30;5.35;;;;;;;17.71;89.86;99377.44;4499601;31;20107;-80
2023/09/27 04:25:30;;;;;;;13.80;4.97;;;;;;;17.82;89.48;99374.47;4484550;32;20172;-80
2023/09/27 04:27:58;;;;;;;12.00;5.25;;;;;;;17.79;89.64;99379.25;4499800;31;20127;-80
2023/09/27 04:30:25;;;;;;;11.95;4.75;;;;;;;17.76;89.86;99385.75;4500951;31;20084;-81
2023/09/27 04:32:52;;;;;;;9.93;5.20;;;;;;;17.79;89.93;99380.09;4494539;31;20135;-81
2023/09/27 04:35:20;;;;;;;16.20;5.53;;;;;;;17.79;89.72;99387.22;4500933;31;20571;-80
2023/09/27 04:37:48;;;;;;;16.15;5.87;;;;;;;17.77;89.91;99392.69;4500803;31;20096;-78
2023/09/27 04:40:16;;;;;;;12.23;5.20;;;;;;;17.72;89.99;99387.88;4500924;31;20084;-77
2023/09/27 04:42:45;;;;;;;16.10;6.03;;;;;;;17.74;89.80;99385.91;4500826;31;20613;-82
2023/09/27 04:45:14;;;;;;;24.05;5.43;;;;;;;17.77;89.65;99390.03;4500724;31;20087;-81
2023/09/27 04:47:45;;;;;;;9.88;5.35;;;;;;;17.87;89.06;99389.84;4500661;31;20155;-82
2023/09/27 04:50:14;;;;;;;12.02;5.10;;;;;;;17.84;89.01;99393.66;4500780;31;20102;-82
2023/09/27 04:52:43;;;;;;;8.45;5.10;;;;;;;17.86;89.08;99390.84;4488514;31;20385;-81
2023/09/27 04:55:12;;;;;;;13.10;5.45;;;;;;;17.83;89.30;99397.31;4469398;32;20157;-80
2023/09/27 04:57:40;;;;;;;9.50;6.10;;;;;;;17.84;89.73;99392.84;4469141;32;20459;-80
2023/09/27 05:00:18;;;;;;;16.67;4.93;;;;;;;17.89;89.38;99394.00;4469285;32;20154;-80
2023/09/27 05:02:46;;;;;;;12.40;5.43;;;;;;;17.95;89.18;99389.03;4487493;31;20096;-80
2023/09/27 05:05:14;;;;;;;15.98;5.95;;;;;;;17.93;88.83;99391.03;4479753;32;20168;-80
2023/09/27 05:07:43;;;;;;;7.47;4.65;;;;;;;18.02;88.73;99396.16;4480714;32;20101;-79
2023/09/27 05:10:11;;;;;;;9.85;5.37;;;;;;;17.95;89.10;99392.50;4481356;31;20156;-79
2023/09/27 05:12:41;;;;;;;11.40;5.95;;;;;;;18.04;89.00;99396.78;4479030;31;20097;-81
2023/09/27 05:15:09;;;;;;;19.62;5.30;;;;;;;18.07;88.97;99401.75;4477222;32;20101;-81
2023/09/27 05:17:43;;;;;;;14.63;5.28;;;;;;;18.18;88.06;99397.94;4472696;31;20097;-81
2023/09/27 05:20:10;;;;;;;13.57;5.53;;;;;;;18.13;88.38;99400.25;4478715;32;20126;-81
2023/09/27 05:22:42;;;;;;;16.35;6.72;;;;;;;18.21;88.15;99402.91;4473909;32;20240;-81
2023/09/27 05:25:10;;;;;;;13.40;6.72;;;;;;;18.34;87.76;99410.28;4479125;32;20204;-81
2023/09/27 05:27:38;;;;;;;12.00;5.78;;;;;;;18.36;87.49;99402.97;4482283;31;20112;-81
2023/09/27 05:30:07;;;;;;;12.90;5.20;;;;;;;18.44;87.28;99413.56;4484195;32;20127;-82
2023/09/27 05:32:36;;;;;;;20.62;6.35;;;;;;;18.46;86.79;99412.59;4482946;31;20131;-82
2023/09/27 05:35:05;;;;;;;14.27;6.30;;;;;;;18.55;86.94;99407.06;4475916;31;161259;-81
2023/09/27 05:37:33;;;;;;;10.80;4.85;;;;;;;18.64;86.40;99413.16;4480710;31;20163;-81
2023/09/27 05:40:04;;;;;;;22.40;5.70;;;;;;;18.71;86.13;99405.31;4482121;31;20119;-81
2023/09/27 05:42:32;;;;;;;25.70;6.07;;;;;;;18.73;85.94;99412.13;4480822;32;20114;-82
2023/09/27 05:45:00;;;;;;;12.63;5.30;;;;;;;18.88;85.72;99412.22;4477653;31;20254;-83
2023/09/27 05:47:28;;;;;;;16.02;5.95;;;;;;;18.92;85.47;99413.50;4476823;32;20457;-82
2023/09/27 05:49:56;;;;;;;13.35;5.65;;;;;;;19.04;85.01;99418.44;4491739;31;20131;-80
2023/09/27 05:52:24;;;;;;;13.77;5.93;;;;;;;19.06;84.84;99419.94;4482073;31;20153;-81
2023/09/27 05:54:51;;;;;;;17.20;6.40;;;;;;;19.05;84.88;99418.25;4473111;32;20123;-79
2023/09/27 05:57:19;;;;;;;14.55;6.05;;;;;;;19.23;84.58;99425.09;4475121;31;20238;-81
2023/09/27 05:59:47;;;;;;;20.60;5.47;;;;;;;19.18;84.99;99430.13;4476912;32;20092;-81
2023/09/27 06:02:19;;;;;;;10.95;5.57;;;;;;;19.40;84.23;99436.47;4484708;31;20116;-82
2023/09/27 06:04:48;;;;;;;12.57;5.00;;;;;;;19.47;83.66;99424.94;4480670;32;20103;-80
2023/09/27 06:07:17;;;;;;;10.68;5.55;;;;;;;19.59;83.06;99435.97;4479633;32;20494;-81
2023/09/27 06:09:45;;;;;;;15.98;5.55;;;;;;;19.72;82.57;99434.53;4482425;31;20097;-81
2023/09/27 06:12:14;;;;;;;20.35;5.90;;;;;;;19.78;81.84;99441.81;4481628;32;20120;-79
2023/09/27 06:14:43;;;;;;;18.95;5.53;;;;;;;19.77;81.42;99434.81;4481952;31;20118;-77
2023/09/27 06:17:15;;;;;;;21.87;5.45;;;;;;;19.89;82.22;99441.38;4479376;31;20096;-78
2023/09/27 06:19:44;;;;;;;11.10;5.12;;;;;;;20.01;80.83;99445.22;4481220;32;20144;-79
2023/09/27 06:22:13;;;;;;;13.85;4.95;;;;;;;20.08;81.13;99455.16;4484745;31;20156;-78
2023/09/27 06:24:41;;;;;;;13.55;5.05;;;;;;;20.12;80.17;99461.75;4487089;31;20556;-79
2023/09/27 06:27:11;;;;;;;11.73;4.80;;;;;;;20.31;80.75;99460.41;4494339;31;20116;-76
2023/09/27 06:29:39;;;;;;;12.73;5.15;;;;;;;20.21;80.39;99468.63;4499843;31;20493;-78
2023/09/27 06:32:08;;;;;;;8.93;4.53;;;;;;;20.29;79.15;99473.88;4489072;31;20109;-77
2023/09/27 06:34:36;;;;;;;6.62;4.93;;;;;;;20.38;78.90;99478.09;4481668;31;20092;-77
2023/09/27 06:37:07;;;;;;;12.70;5.15;;;;;;;20.39;78.18;99477.09;4481475;32;20143;-76
2023/09/27 06:39:35;;;;;;;9.50;5.05;;;;;;;20.39;78.41;99478.94;4482030;31;20149;-78
2023/09/27 06:42:06;;;;;;;14.18;5.32;;;;;;;20.47;78.99;99475.34;4481815;31;20165;-77
2023/09/27 06:44:34;;;;;;;15.60;5.20;;;;;;;20.45;78.30;99480.03;4482090;31;20153;-76
2023/09/27 06:47:02;;;;;;;14.20;5.50;;;;;;;20.45;78.12;99486.16;4481453;32;20134;-79
2023/09/27 06:49:31;;;;;;;15.70;5.10;;;;;;;20.39;77.57;99478.94;4481874;31;20088;-77
2023/09/27 06:52:02;;;;;;;16.23;5.22;;;;;;;20.52;77.65;99486.28;4468228;32;20509;-77
2023/09/27 06:54:30;;;;;;;12.88;5.25;;;;;;;20.48;77.48;99488.47;4475573;32;20092;-81
2023/09/27 06:56:58;;;;;;;9.50;5.10;;;;;;;20.46;77.32;99487.03;4482006;31;20172;-79
2023/09/27 06:59:26;;;;;;;11.18;5.57;;;;;;;20.50;77.24;99490.94;4480290;31;20452;-79
2023/09/27 07:01:54;;;;;;;12.57;5.60;;;;;;;20.79;77.71;99497.28;4482058;31;20158;-82
2023/09/27 07:04:22;;;;;;;10.52;5.20;;;;;;;20.80;77.78;99504.28;4481889;31;20140;-79
2023/09/27 07:06:49;;;;;;;13.15;5.32;;;;;;;20.91;76.43;99495.84;4480581;31;20093;-83
2023/09/27 07:09:20;;;;;;;12.23;5.53;;;;;;;20.85;76.49;99493.91;4479954;31;20849;-78
2023/09/27 07:11:48;;;;;;;12.43;5.82;;;;;;;20.84;76.20;99502.91;4481527;31;20481;-79
2023/09/27 07:14:18;;;;;;;9.77;5.00;;;;;;;20.78;76.11;99498.31;4480628;31;20123;-81
2023/09/27 07:16:46;;;;;;;11.95;5.45;;;;;;;20.94;76.26;99498.13;4473034;32;20119;-79
2023/09/27 07:19:31;;;;;;;14.15;5.53;;;;;;;20.88;76.13;99505.00;4483677;32;20116;-79
2023/09/27 07:22:01;;;;;;;12.43;5.43;;;;;;;20.99;75.85;99500.22;4481797;31;20092;-79
2023/09/27 07:24:30;;;;;;;14.07;5.57;;;;;;;21.00;74.85;99513.34;4486281;31;20152;-77
2023/09/27 07:26:57;;;;;;;10.07;5.22;;;;;;;20.98;75.11;99507.38;4491692;31;20023;-77
2023/09/27 07:29:26;;;;;;;9.55;5.50;;;;;;;20.95;75.45;99506.94;4495762;31;20092;-76
2023/09/27 07:31:55;;;;;;;9.52;5.70;;;;;;;21.17;75.91;99503.28;4484305;32;20477;-78
2023/09/27 07:34:22;;;;;;;11.18;6.00;;;;;;;21.25;75.26;99510.34;4487444;31;20109;-83
2023/09/27 07:36:51;;;;;;;10.32;5.57;;;;;;;21.42;74.04;99501.12;4487067;31;20088;-79
2023/09/27 07:39:20;;;;;;;8.77;5.47;;;;;;;21.59;74.15;99506.19;4478121;31;20161;-82
2023/09/27 07:41:49;;;;;;;9.35;5.30;;;;;;;21.71;72.92;99515.38;4482131;32;20163;-82
2023/09/27 07:44:17;;;;;;;12.77;5.60;;;;;;;21.72;72.11;99514.31;4475361;31;20104;-87
2023/09/27 07:46:48;;;;;;;11.90;5.57;;;;;;;21.64;72.15;99521.66;4481150;32;20118;-84
2023/09/27 07:49:16;;;;;;;15.15;6.18;;;;;;;21.76;73.77;99520.94;4484708;31;20637;-80
2023/09/27 07:51:44;;;;;;;11.23;5.35;;;;;;;21.93;72.23;99518.81;4476842;32;20175;-80
2023/09/27 07:54:12;;;;;;;11.80;5.22;;;;;;;21.98;70.47;99526.25;4476152;31;20097;-80
2023/09/27 07:56:40;;;;;;;15.48;5.55;;;;;;;21.98;69.85;99520.91;4483845;32;20112;-80
2023/09/27 07:59:08;;;;;;;14.85;5.05;;;;;;;21.93;70.17;99528.69;4473678;32;20092;-81
2023/09/27 08:01:37;;;;;;;10.00;5.50;;;;;;;22.02;70.22;99519.50;4485143;31;20104;-79
2023/09/27 08:04:06;;;;;;;8.68;4.93;;;;;;;22.17;68.87;99526.63;4484202;31;20105;-80
2023/09/27 08:06:38;;;;;;;11.80;5.28;;;;;;;22.40;69.49;99524.53;4483216;31;20454;-80
2023/09/27 08:09:06;;;;;;;9.55;5.00;;;;;;;22.35;68.65;99521.63;4482331;31;20165;-81
2023/09/27 08:11:44;;;;;;;14.48;5.55;;;;;;;22.55;69.23;99523.59;4483104;31;20088;-80
2023/09/27 08:14:13;;;;;;;13.18;5.15;;;;;;;22.66;68.65;99529.22;4481612;31;20108;-84
2023/09/27 08:16:42;;;;;;;12.45;5.53;;;;;;;22.73;67.43;99537.25;4480772;31;20111;-80
2023/09/27 08:19:15;;;;;;;13.00;5.75;;;;;;;22.58;67.64;99532.03;4479406;32;20106;-82
2023/09/27 08:21:43;;;;;;;12.07;5.07;;;;;;;22.61;68.29;99530.84;4483582;31;20130;-83
2023/09/27 08:24:17;;;;;;;15.70;5.43;;;;;;;22.85;67.50;99535.69;4481035;31;20455;-83
2023/09/27 08:26:49;;;;;;;9.48;5.30;;;;;;;22.99;67.81;99531.22;4481799;31;20096;-83
2023/09/27 08:29:18;;;;;;;9.02;5.07;;;;;;;22.93;67.12;99533.88;4486205;31;20097;-82
2023/09/27 08:31:46;;;;;;;13.98;5.12;;;;;;;22.91;68.01;99527.87;4480414;31;20839;-82
2023/09/27 08:34:14;;;;;;;9.13;5.12;;;;;;;23.24;69.05;99529.88;4477393;31;20101;-81
2023/09/27 08:36:41;;;;;;;15.27;5.25;;;;;;;23.34;67.48;99530.34;4479724;32;20084;-81
2023/09/27 08:39:09;;;;;;;12.52;5.78;;;;;;;23.20;66.71;99526.81;4481560;31;20100;-79
2023/09/27 08:41:38;;;;;;;11.85;5.30;;;;;;;23.42;68.43;99530.13;4479059;31;20157;-79
2023/09/27 08:44:06;;;;;;;11.65;5.05;;;;;;;23.54;66.79;99527.69;4474604;32;20091;-82
2023/09/27 08:46:35;;;;;;;12.57;5.07;;;;;;;23.63;67.36;99533.69;4476668;32;20112;-80
2023/09/27 08:49:03;;;;;;;13.48;6.03;;;;;;;23.60;66.00;99534.91;4476859;32;20114;-82
2023/09/27 08:51:31;;;;;;;12.20;6.10;;;;;;;23.42;67.28;99530.13;4478214;32;20099;-79
2023/09/27 08:54:00;;;;;;;11.95;6.07;;;;;;;23.59;67.26;99537.78;4476056;31;20092;-75
2023/09/27 08:56:28;;;;;;;11.88;6.57;;;;;;;23.57;66.17;99532.66;4490513;31;20104;-76
2023/09/27 08:58:56;;;;;;;11.60;5.75;;;;;;;23.59;67.39;99535.13;4489844;31;20088;-74
2023/09/27 09:01:25;;;;;;;10.43;5.18;;;;;;;23.49;67.37;99539.00;4479938;32;20100;-77
2023/09/27 09:03:53;;;;;;;11.25;5.43;;;;;;;23.45;67.75;99537.78;4482786;31;20125;-77
2023/09/27 09:06:20;;;;;;;11.90;5.37;;;;;;;23.68;66.96;99525.88;4489127;31;20100;-77
2023/09/27 09:08:50;;;;;;;11.43;5.95;;;;;;;23.60;67.81;99540.25;4476639;32;20481;-77
2023/09/27 09:11:18;;;;;;;13.90;5.43;;;;;;;23.66;67.29;99522.59;4474377;32;20160;-76
2023/09/27 09:13:57;;;;;;;13.23;6.25;;;;;;;23.70;67.15;99529.19;4480803;32;20151;-75
2023/09/27 09:16:25;;;;;;;11.20;5.82;;;;;;;23.54;67.35;99525.88;4484104;31;20139;-75
2023/09/27 09:18:52;;;;;;;12.07;6.47;;;;;;;23.66;67.37;99517.22;4481264;31;20173;-75
2023/09/27 09:21:25;;;;;;;16.73;6.32;;;;;;;23.71;65.74;99520.13;4481853;32;20587;-75
2023/09/27 09:23:53;;;;;;;14.93;5.65;;;;;;;23.79;66.54;99513.75;4482750;31;20103;-75
2023/09/27 09:26:28;;;;;;;16.62;5.82;;;;;;;23.82;65.03;99516.84;4480626;32;20093;-75
2023/09/27 09:28:59;;;;;;;18.37;6.15;;;;;;;23.91;65.41;99523.66;4482113;32;20092;-75
2023/09/27 09:31:28;;;;;;;10.88;5.87;;;;;;;24.17;65.24;99521.19;4478715;31;20156;-76
2023/09/27 09:34:03;;;;;;;10.68;5.87;;;;;;;24.16;65.03;99523.03;4480369;31;20150;-79
2023/09/27 09:36:30;;;;;;;15.45;5.28;;;;;;;24.39;64.57;99522.59;4479644;31;20123;-79
2023/09/27 09:39:14;;;;;;;10.52;5.53;;;;;;;24.60;63.07;99524.25;4477393;31;20096;-80
2023/09/27 09:41:47;;;;;;;18.85;7.47;;;;;;;24.71;63.83;99529.97;4476978;32;20167;-78
2023/09/27 09:44:18;;;;;;;10.57;6.03;;;;;;;24.45;63.48;99519.09;4473679;32;20108;-80
2023/09/27 09:46:47;;;;;;;12.20;5.85;;;;;;;24.47;63.53;99516.19;4474283;32;20504;-80
2023/09/27 09:49:16;;;;;;;12.35;6.10;;;;;;;24.45;63.39;99511.06;4481593;32;20100;-80
2023/09/27 09:51:48;;;;;;;11.35;5.30;;;;;;;24.69;63.91;99511.41;4482969;31;20112;-78
2023/09/27 09:54:28;;;;;;;11.15;5.40;;;;;;;24.77;61.87;99507.69;4480236;31;20102;-80
2023/09/27 09:56:59;;;;;;;16.52;6.68;;;;;;;24.48;62.56;99509.78;4479300;31;20100;-79
2023/09/27 09:59:47;;;;;;;11.70;5.35;;;;;;;24.66;61.39;99511.84;4482239;32;20109;-80
2023/09/27 10:02:20;;;;;;;13.50;6.07;;;;;;;24.61;60.56;99517.81;4483289;32;20114;-81
2023/09/27 10:04:55;;;;;;;11.52;5.40;;;;;;;24.85;60.62;99520.84;4475261;32;20100;-83
2023/09/27 10:07:25;;;;;;;15.10;5.47;;;;;;;24.94;60.49;99511.53;4481893;31;20091;-82
2023/09/27 10:09:52;;;;;;;15.52;5.22;;;;;;;25.04;59.71;99512.94;4470839;31;20130;-83
2023/09/27 10:12:23;;;;;;;11.35;5.30;;;;;;;25.10;60.32;99507.56;4484665;31;20101;-81
2023/09/27 10:14:51;;;;;;;14.10;5.30;;;;;;;25.06;59.61;99517.06;4480393;32;20826;-79
2023/09/27 10:17:20;;;;;;;14.18;5.93;;;;;;;25.19;60.25;99508.09;4478989;32;20534;-83
2023/09/27 10:20:11;;;;;;;18.65;5.75;;;;;;;25.13;58.82;99511.66;4478094;31;20072;-79
2023/09/27 10:22:41;;;;;;;16.70;5.70;;;;;;;25.00;58.60;99511.69;4477666;31;20097;-82
2023/09/27 10:25:32;;;;;;;10.10;5.25;;;;;;;25.10;59.13;99504.03;4479801;32;20113;-80
2023/09/27 10:28:04;;;;;;;12.65;4.93;;;;;;;25.26;58.68;99506.22;4480053;31;20108;-79
2023/09/27 10:30:40;;;;;;;9.45;5.55;;;;;;;25.28;56.94;99504.13;4474976;31;20484;-84
2023/09/27 10:33:14;;;;;;;13.45;5.00;;;;;;;25.38;57.75;99501.03;4480717;31;20149;-79
2023/09/27 10:35:43;;;;;;;12.57;4.93;;;;;;;25.37;54.17;99498.56;4474199;32;20100;-78
2023/09/27 10:38:12;;;;;;;10.43;5.57;;;;;;;25.62;54.93;99495.94;4474994;31;20140;-80
2023/09/27 10:40:42;;;;;;;10.68;5.15;;;;;;;25.50;55.12;99504.66;4478508;31;20629;-80
2023/09/27 10:43:11;;;;;;;10.63;4.78;;;;;;;25.64;55.90;99493.84;4482503;31;20103;-81
2023/09/27 10:45:38;;;;;;;8.82;5.37;;;;;;;25.68;55.50;99500.41;4475192;31;20126;-80
2023/09/27 10:48:18;;;;;;;8.85;5.43;;;;;;;25.87;54.91;99495.91;4478543;31;20096;-79
2023/09/27 10:50:55;;;;;;;8.68;4.72;;;;;;;25.82;52.66;99493.88;4479896;31;20571;-78
2023/09/27 10:53:23;;;;;;;26.37;4.87;;;;;;;25.85;52.16;99495.31;4477309;31;20108;-79
2023/09/27 10:55:51;;;;;;;7.10;5.12;;;;;;;26.08;52.34;99484.00;4484470;31;20110;-81
2023/09/27 10:58:19;;;;;;;8.40;4.87;;;;;;;25.98;48.31;99481.81;4483496;32;20084;-78
2023/09/27 11:00:51;;;;;;;10.13;5.18;;;;;;;25.81;48.23;99478.00;4476376;32;20156;-78
2023/09/27 11:03:20;;;;;;;16.92;5.12;;;;;;;25.87;50.63;99474.44;4477879;32;21330;-78
2023/09/27 11:05:47;;;;;;;23.62;11.75;;;;;;;26.05;49.77;99470.19;4478945;32;20390;-79
2023/09/27 11:08:22;;;;;;;13.95;5.43;;;;;;;26.04;50.27;99461.28;4481027;32;20084;-78
2023/09/27 11:10:52;;;;;;;15.60;5.68;;;;;;;26.10;47.44;99459.59;4480902;32;20100;-81
2023/09/27 11:13:21;;;;;;;8.57;5.10;;;;;;;26.06;49.60;99459.22;4482699;32;20452;-78
2023/09/27 11:15:50;;;;;;;11.12;5.20;;;;;;;26.08;49.54;99453.63;4477953;32;20512;-78
2023/09/27 11:18:19;;;;;;;12.23;5.10;;;;;;;26.21;49.53;99450.81;4474262;32;20796;-79
2023/09/27 11:20:47;;;;;;;13.60;4.90;;;;;;;26.10;48.30;99446.16;4475574;32;20088;-78
2023/09/27 11:23:14;;;;;;;20.12;5.65;;;;;;;26.35;50.60;99452.31;4477421;31;20131;-78
2023/09/27 11:25:43;;;;;;;9.90;5.37;;;;;;;26.10;46.55;99452.37;4478787;32;20108;-78
2023/09/27 11:28:17;;;;;;;10.60;5.37;;;;;;;26.18;50.49;99440.53;4477266;32;20112;-78
2023/09/27 11:30:44;;;;;;;14.35;4.80;;;;;;;26.39;49.97;99441.94;4481909;32;20100;-78
2023/09/27 11:33:16;;;;;;;10.57;4.72;;;;;;;26.34;45.68;99449.84;4482516;31;20157;-78
2023/09/27 11:35:49;;;;;;;12.95;5.82;;;;;;;26.40;46.29;99440.88;4484135;32;20144;-78